sensor_id;sensor_type;location;lat;lon;timestamp;pressure;altitude;pressure_sealevel;temperature;humidity
62038;BME280;47991;42.974;12.082;2022-07-06T00:02:22;97770.08;;;21.85;57.63
62038;BME280;47991;42.974;12.082;2022-07-06T00:04:50;97768.55;;;21.74;59.42
62038;BME280;47991;42.974;12.082;2022-07-06T00:07:17;97771.07;;;21.62;59.43
62038;BME280;47991;42.974;12.082;2022-07-06T00:09:45;97770.73;;;21.57;60.42
62038;BME280;47991;42.974;12.082;2022-07-06T00:12:12;97767.36;;;21.61;58.63
62038;BME280;47991;42.974;12.082;2022-07-06T00:14:39;97763.37;;;21.52;58.58
62038;BME280;47991;42.974;12.082;2022-07-06T00:17:06;97772.63;;;21.30;60.06
62038;BME280;47991;42.974;12.082;2022-07-06T00:19:33;97772.05;;;21.20;60.62
62038;BME280;47991;42.974;12.082;2022-07-06T00:22:01;97768.38;;;21.16;61.12
62038;BME280;47991;42.974;12.082;2022-07-06T00:24:28;97767.96;;;21.17;59.40
62038;BME280;47991;42.974;12.082;2022-07-06T00:26:55;97770.05;;;21.23;59.68
62038;BME280;47991;42.974;12.082;2022-07-06T00:29:23;97769.98;;;21.24;59.61
62038;BME280;47991;42.974;12.082;2022-07-06T00:31:50;97761.13;;;21.12;59.99
62038;BME280;47991;42.974;12.082;2022-07-06T00:34:18;97758.28;;;21.04;60.00
62038;BME280;47991;42.974;12.082;2022-07-06T00:36:45;97756.33;;;21.04;60.60
62038;BME280;47991;42.974;12.082;2022-07-06T00:39:12;97759.63;;;20.98;61.55
62038;BME280;47991;42.974;12.082;2022-07-06T00:41:39;97756.90;;;20.93;60.27
62038;BME280;47991;42.974;12.082;2022-07-06T00:44:11;97759.56;;;20.83;62.15
62038;BME280;47991;42.974;12.082;2022-07-06T00:46:38;97757.37;;;20.73;62.45
62038;BME280;47991;42.974;12.082;2022-07-06T00:49:06;97764.83;;;20.77;61.65
62038;BME280;47991;42.974;12.082;2022-07-06T00:51:53;97763.50;;;20.83;61.46
62038;BME280;47991;42.974;12.082;2022-07-06T00:54:21;97767.70;;;20.83;60.82
62038;BME280;47991;42.974;12.082;2022-07-06T00:56:48;97765.64;;;20.76;61.06
62038;BME280;47991;42.974;12.082;2022-07-06T00:59:15;97763.78;;;20.64;62.86
62038;BME280;47991;42.974;12.082;2022-07-06T01:01:42;97765.91;;;20.59;61.55
62038;BME280;47991;42.974;12.082;2022-07-06T01:04:10;97760.88;;;20.48;61.93
62038;BME280;47991;42.974;12.082;2022-07-06T01:06:38;97758.98;;;20.42;61.67
62038;BME280;47991;42.974;12.082;2022-07-06T01:09:05;97761.88;;;20.39;62.21
62038;BME280;47991;42.974;12.082;2022-07-06T01:11:32;97757.41;;;20.33;62.68
62038;BME280;47991;42.974;12.082;2022-07-06T01:14:02;97755.09;;;20.28;63.13
62038;BME280;47991;42.974;12.082;2022-07-06T01:16:30;97754.49;;;20.18;64.50
62038;BME280;47991;42.974;12.082;2022-07-06T01:18:58;97744.81;;;20.26;64.02
62038;BME280;47991;42.974;12.082;2022-07-06T01:21:25;97745.95;;;20.35;63.02
62038;BME280;47991;42.974;12.082;2022-07-06T01:23:52;97745.48;;;20.43;63.09
62038;BME280;47991;42.974;12.082;2022-07-06T01:26:22;97749.65;;;20.42;62.67
62038;BME280;47991;42.974;12.082;2022-07-06T01:28:50;97749.38;;;20.43;62.78
62038;BME280;47991;42.974;12.082;2022-07-06T01:31:28;97743.70;;;20.37;63.16
62038;BME280;47991;42.974;12.082;2022-07-06T01:34:19;97739.40;;;20.29;62.79
62038;BME280;47991;42.974;12.082;2022-07-06T01:36:50;97735.98;;;20.24;63.29
62038;BME280;47991;42.974;12.082;2022-07-06T01:39:20;97738.23;;;20.20;63.08
62038;BME280;47991;42.974;12.082;2022-07-06T01:41:47;97744.66;;;20.25;62.64
62038;BME280;47991;42.974;12.082;2022-07-06T01:44:14;97741.04;;;20.28;62.42
62038;BME280;47991;42.974;12.082;2022-07-06T01:46:41;97739.60;;;20.15;64.16
62038;BME280;47991;42.974;12.082;2022-07-06T01:49:17;97743.05;;;19.99;64.14
62038;BME280;47991;42.974;12.082;2022-07-06T01:51:44;97740.15;;;19.96;63.25
62038;BME280;47991;42.974;12.082;2022-07-06T01:54:13;97738.77;;;19.96;64.10
62038;BME280;47991;42.974;12.082;2022-07-06T01:56:47;97741.80;;;20.01;63.44
62038;BME280;47991;42.974;12.082;2022-07-06T01:59:15;97741.38;;;20.05;63.86
62038;BME280;47991;42.974;12.082;2022-07-06T02:01:42;97737.29;;;20.04;63.55
62038;BME280;47991;42.974;12.082;2022-07-06T02:04:08;97729.41;;;20.02;63.74
62038;BME280;47991;42.974;12.082;2022-07-06T02:06:36;97728.66;;;19.99;64.21
62038;BME280;47991;42.974;12.082;2022-07-06T02:09:03;97731.86;;;19.97;64.18
62038;BME280;47991;42.974;12.082;2022-07-06T02:11:30;97728.14;;;20.04;63.13
62038;BME280;47991;42.974;12.082;2022-07-06T02:13:57;97731.01;;;20.10;63.37
62038;BME280;47991;42.974;12.082;2022-07-06T02:16:24;97731.09;;;20.19;62.89
62038;BME280;47991;42.974;12.082;2022-07-06T02:18:51;97735.61;;;20.21;63.74
62038;BME280;47991;42.974;12.082;2022-07-06T02:21:18;97734.68;;;20.11;64.01
62038;BME280;47991;42.974;12.082;2022-07-06T02:23:47;97741.41;;;20.02;64.10
62038;BME280;47991;42.974;12.082;2022-07-06T02:26:14;97754.69;;;19.94;64.96
62038;BME280;47991;42.974;12.082;2022-07-06T02:28:41;97758.63;;;19.88;64.44
62038;BME280;47991;42.974;12.082;2022-07-06T02:31:08;97753.59;;;19.86;64.84
62038;BME280;47991;42.974;12.082;2022-07-06T02:33:58;97749.11;;;19.83;64.33
62038;BME280;47991;42.974;12.082;2022-07-06T02:36:25;97752.45;;;19.87;64.46
62038;BME280;47991;42.974;12.082;2022-07-06T02:38:52;97755.83;;;19.87;64.92
62038;BME280;47991;42.974;12.082;2022-07-06T02:41:19;97749.67;;;19.88;64.94
62038;BME280;47991;42.974;12.082;2022-07-06T02:44:05;97752.44;;;19.81;64.78
62038;BME280;47991;42.974;12.082;2022-07-06T02:46:33;97752.36;;;19.94;64.79
62038;BME280;47991;42.974;12.082;2022-07-06T02:49:01;97744.09;;;19.96;63.87
62038;BME280;47991;42.974;12.082;2022-07-06T02:51:30;97745.50;;;19.91;65.06
62038;BME280;47991;42.974;12.082;2022-07-06T02:53:57;97746.85;;;19.79;65.16
62038;BME280;47991;42.974;12.082;2022-07-06T02:56:24;97747.70;;;19.71;65.61
62038;BME280;47991;42.974;12.082;2022-07-06T02:58:51;97748.80;;;19.66;64.50
62038;BME280;47991;42.974;12.082;2022-07-06T03:01:19;97746.49;;;19.57;64.35
62038;BME280;47991;42.974;12.082;2022-07-06T03:03:47;97748.02;;;19.50;65.65
62038;BME280;47991;42.974;12.082;2022-07-06T03:06:15;97742.79;;;19.45;65.02
62038;BME280;47991;42.974;12.082;2022-07-06T03:08:42;97738.90;;;19.38;65.33
62038;BME280;47991;42.974;12.082;2022-07-06T03:11:09;97738.35;;;19.30;66.34
62038;BME280;47991;42.974;12.082;2022-07-06T03:13:36;97738.10;;;19.23;66.38
62038;BME280;47991;42.974;12.082;2022-07-06T03:16:03;97735.76;;;19.20;66.62
62038;BME280;47991;42.974;12.082;2022-07-06T03:18:31;97739.12;;;19.24;66.15
62038;BME280;47991;42.974;12.082;2022-07-06T03:20:58;97740.75;;;19.32;66.80
62038;BME280;47991;42.974;12.082;2022-07-06T03:23:25;97740.55;;;19.32;66.49
62038;BME280;47991;42.974;12.082;2022-07-06T03:25:52;97738.70;;;19.39;65.83
62038;BME280;47991;42.974;12.082;2022-07-06T03:28:19;97739.67;;;19.40;65.53
62038;BME280;47991;42.974;12.082;2022-07-06T03:30:49;97738.86;;;19.28;65.83
62038;BME280;47991;42.974;12.082;2022-07-06T03:33:16;97742.13;;;19.16;67.09
62038;BME280;47991;42.974;12.082;2022-07-06T03:36:01;97743.43;;;19.06;67.51
62038;BME280;47991;42.974;12.082;2022-07-06T03:38:28;97746.45;;;19.04;67.51
62038;BME280;47991;42.974;12.082;2022-07-06T03:40:56;97750.56;;;19.04;66.11
62038;BME280;47991;42.974;12.082;2022-07-06T03:43:26;97754.20;;;19.03;67.76
62038;BME280;47991;42.974;12.082;2022-07-06T03:45:54;97759.04;;;18.89;67.74
62038;BME280;47991;42.974;12.082;2022-07-06T03:48:21;97762.16;;;18.82;67.83
62038;BME280;47991;42.974;12.082;2022-07-06T03:50:48;97758.78;;;18.78;67.15
62038;BME280;47991;42.974;12.082;2022-07-06T03:53:16;97763.61;;;18.78;67.52
62038;BME280;47991;42.974;12.082;2022-07-06T03:55:44;97766.08;;;18.82;67.70
62038;BME280;47991;42.974;12.082;2022-07-06T03:58:32;97765.52;;;18.91;67.39
62038;BME280;47991;42.974;12.082;2022-07-06T04:01:01;97769.25;;;18.98;68.25
62038;BME280;47991;42.974;12.082;2022-07-06T04:03:28;97769.40;;;19.04;67.47
62038;BME280;47991;42.974;12.082;2022-07-06T04:05:55;97766.28;;;19.16;67.14
62038;BME280;47991;42.974;12.082;2022-07-06T04:08:22;97766.30;;;19.25;66.69
62038;BME280;47991;42.974;12.082;2022-07-06T04:11:09;97769.97;;;19.29;67.01
62038;BME280;47991;42.974;12.082;2022-07-06T04:13:36;97772.35;;;19.34;67.62
62038;BME280;47991;42.974;12.082;2022-07-06T04:16:07;97772.14;;;19.34;67.40
62038;BME280;47991;42.974;12.082;2022-07-06T04:18:34;97774.42;;;19.41;68.00
62038;BME280;47991;42.974;12.082;2022-07-06T04:21:01;97775.05;;;19.42;67.54
62038;BME280;47991;42.974;12.082;2022-07-06T04:23:49;97764.45;;;19.51;66.67
62038;BME280;47991;42.974;12.082;2022-07-06T04:26:16;97760.73;;;19.64;66.40
62038;BME280;47991;42.974;12.082;2022-07-06T04:28:43;97761.92;;;19.84;66.00
62038;BME280;47991;42.974;12.082;2022-07-06T04:31:10;97758.73;;;20.32;65.05
62038;BME280;47991;42.974;12.082;2022-07-06T04:33:52;97759.29;;;20.90;63.92
62038;BME280;47991;42.974;12.082;2022-07-06T04:36:21;97765.54;;;21.44;62.93
62038;BME280;47991;42.974;12.082;2022-07-06T04:38:49;97762.40;;;22.04;61.61
62038;BME280;47991;42.974;12.082;2022-07-06T04:41:16;97760.29;;;22.69;59.93
62038;BME280;47991;42.974;12.082;2022-07-06T04:43:44;97764.21;;;23.21;58.66
62038;BME280;47991;42.974;12.082;2022-07-06T04:46:14;97769.11;;;23.61;56.74
62038;BME280;47991;42.974;12.082;2022-07-06T04:49:01;97768.19;;;24.10;55.02
62038;BME280;47991;42.974;12.082;2022-07-06T04:51:30;97766.88;;;24.47;54.36
62038;BME280;47991;42.974;12.082;2022-07-06T04:53:58;97766.20;;;24.76;53.19
62038;BME280;47991;42.974;12.082;2022-07-06T04:56:45;97770.10;;;25.15;52.40
62038;BME280;47991;42.974;12.082;2022-07-06T04:59:14;97767.92;;;25.52;52.08
62038;BME280;47991;42.974;12.082;2022-07-06T05:01:42;97768.31;;;25.70;51.89
62038;BME280;47991;42.974;12.082;2022-07-06T05:04:27;97767.31;;;25.40;52.30
62038;BME280;47991;42.974;12.082;2022-07-06T05:07:23;97767.46;;;25.32;52.85
62038;BME280;47991;42.974;12.082;2022-07-06T05:10:00;97770.67;;;25.37;52.61
62038;BME280;47991;42.974;12.082;2022-07-06T05:12:47;97763.71;;;26.11;51.95
62038;BME280;47991;42.974;12.082;2022-07-06T05:15:15;97759.03;;;26.65;49.68
62038;BME280;47991;42.974;12.082;2022-07-06T05:17:43;97766.59;;;27.23;48.46
62038;BME280;47991;42.974;12.082;2022-07-06T05:20:11;97767.45;;;27.63;47.01
62038;BME280;47991;42.974;12.082;2022-07-06T05:22:59;97771.45;;;28.13;45.75
62038;BME280;47991;42.974;12.082;2022-07-06T05:25:44;97769.05;;;28.22;45.22
62038;BME280;47991;42.974;12.082;2022-07-06T05:28:12;97770.29;;;28.28;45.80
62038;BME280;47991;42.974;12.082;2022-07-06T05:30:39;97771.73;;;28.43;44.72
62038;BME280;47991;42.974;12.082;2022-07-06T05:33:06;97765.14;;;28.16;45.25
62038;BME280;47991;42.974;12.082;2022-07-06T05:35:34;97769.91;;;27.81;46.00
62038;BME280;47991;42.974;12.082;2022-07-06T05:38:01;97768.81;;;27.51;47.06
62038;BME280;47991;42.974;12.082;2022-07-06T05:40:28;97767.78;;;27.07;48.48
62038;BME280;47991;42.974;12.082;2022-07-06T05:42:55;97772.61;;;26.89;48.97
62038;BME280;47991;42.974;12.082;2022-07-06T05:45:23;97775.75;;;26.92;49.40
62038;BME280;47991;42.974;12.082;2022-07-06T05:47:58;97772.98;;;26.73;49.56
62038;BME280;47991;42.974;12.082;2022-07-06T05:50:43;97772.02;;;26.19;50.98
62038;BME280;47991;42.974;12.082;2022-07-06T05:53:10;97770.17;;;26.03;51.47
62038;BME280;47991;42.974;12.082;2022-07-06T05:55:38;97767.25;;;26.02;51.30
62038;BME280;47991;42.974;12.082;2022-07-06T05:58:25;97765.58;;;26.20;51.10
62038;BME280;47991;42.974;12.082;2022-07-06T06:00:53;97763.29;;;26.47;50.75
62038;BME280;47991;42.974;12.082;2022-07-06T06:03:21;97755.83;;;26.49;50.40
62038;BME280;47991;42.974;12.082;2022-07-06T06:05:49;97754.73;;;26.51;50.13
62038;BME280;47991;42.974;12.082;2022-07-06T06:08:18;97759.73;;;26.56;50.17
62038;BME280;47991;42.974;12.082;2022-07-06T06:10:45;97758.52;;;26.84;49.73
62038;BME280;47991;42.974;12.082;2022-07-06T06:13:32;97760.59;;;27.14;49.72
62038;BME280;47991;42.974;12.082;2022-07-06T06:15:59;97763.86;;;27.23;49.58
62038;BME280;47991;42.974;12.082;2022-07-06T06:18:25;97763.73;;;27.40;48.91
62038;BME280;47991;42.974;12.082;2022-07-06T06:20:53;97763.85;;;27.59;49.00
62038;BME280;47991;42.974;12.082;2022-07-06T06:23:19;97763.02;;;27.69;48.86
62038;BME280;47991;42.974;12.082;2022-07-06T06:25:47;97758.01;;;27.71;48.76
62038;BME280;47991;42.974;12.082;2022-07-06T06:28:14;97756.96;;;27.66;49.22
62038;BME280;47991;42.974;12.082;2022-07-06T06:30:41;97754.06;;;27.63;49.19
62038;BME280;47991;42.974;12.082;2022-07-06T06:35:59;97764.86;;;27.34;49.44
62038;BME280;47991;42.974;12.082;2022-07-06T06:38:26;97770.84;;;27.52;49.68
62038;BME280;47991;42.974;12.082;2022-07-06T06:40:53;97779.54;;;27.80;48.76
62038;BME280;47991;42.974;12.082;2022-07-06T06:43:20;97778.92;;;28.20;48.21
62038;BME280;47991;42.974;12.082;2022-07-06T06:46:11;97770.94;;;28.58;47.22
62038;BME280;47991;42.974;12.082;2022-07-06T06:48:38;97771.40;;;28.66;46.80
62038;BME280;47991;42.974;12.082;2022-07-06T06:51:05;97773.20;;;28.64;46.89
62038;BME280;47991;42.974;12.082;2022-07-06T06:53:32;97772.70;;;28.85;47.01
62038;BME280;47991;42.974;12.082;2022-07-06T06:55:59;97772.69;;;29.03;46.77
62038;BME280;47991;42.974;12.082;2022-07-06T06:58:26;97769.55;;;29.10;46.58
62038;BME280;47991;42.974;12.082;2022-07-06T07:00:53;97766.38;;;29.07;46.52
62038;BME280;47991;42.974;12.082;2022-07-06T07:03:21;97762.35;;;29.17;46.07
62038;BME280;47991;42.974;12.082;2022-07-06T07:05:47;97764.73;;;29.22;46.28
62038;BME280;47991;42.974;12.082;2022-07-06T07:08:21;97770.16;;;29.24;45.16
62038;BME280;47991;42.974;12.082;2022-07-06T07:10:48;97772.55;;;29.27;45.26
62038;BME280;47991;42.974;12.082;2022-07-06T07:13:15;97774.57;;;29.36;44.90
62038;BME280;47991;42.974;12.082;2022-07-06T07:15:42;97777.02;;;29.48;43.61
62038;BME280;47991;42.974;12.082;2022-07-06T07:18:09;97774.66;;;29.55;42.16
62038;BME280;47991;42.974;12.082;2022-07-06T07:20:36;97775.67;;;29.78;41.72
62038;BME280;47991;42.974;12.082;2022-07-06T07:23:03;97771.36;;;30.07;41.26
62038;BME280;47991;42.974;12.082;2022-07-06T07:25:30;97769.94;;;30.18;41.27
62038;BME280;47991;42.974;12.082;2022-07-06T07:27:57;97774.95;;;30.21;39.91
62038;BME280;47991;42.974;12.082;2022-07-06T07:30:24;97775.41;;;30.37;39.31
62038;BME280;47991;42.974;12.082;2022-07-06T07:32:51;97779.53;;;30.44;38.71
62038;BME280;47991;42.974;12.082;2022-07-06T07:35:18;97781.11;;;30.51;38.86
62038;BME280;47991;42.974;12.082;2022-07-06T07:37:45;97778.66;;;30.57;38.74
62038;BME280;47991;42.974;12.082;2022-07-06T07:40:13;97774.31;;;30.63;38.52
62038;BME280;47991;42.974;12.082;2022-07-06T07:42:40;97771.52;;;30.69;38.39
62038;BME280;47991;42.974;12.082;2022-07-06T07:45:08;97760.70;;;30.73;38.08
62038;BME280;47991;42.974;12.082;2022-07-06T07:47:55;97760.45;;;30.73;38.03
62038;BME280;47991;42.974;12.082;2022-07-06T07:50:23;97760.18;;;30.90;37.80
62038;BME280;47991;42.974;12.082;2022-07-06T07:52:50;97764.05;;;31.08;37.30
62038;BME280;47991;42.974;12.082;2022-07-06T07:55:17;97764.73;;;31.18;37.58
62038;BME280;47991;42.974;12.082;2022-07-06T07:57:44;97768.94;;;31.26;37.08
62038;BME280;47991;42.974;12.082;2022-07-06T08:00:13;97771.14;;;31.34;36.90
62038;BME280;47991;42.974;12.082;2022-07-06T08:02:40;97771.08;;;31.56;37.03
62038;BME280;47991;42.974;12.082;2022-07-06T08:05:08;97770.81;;;31.71;36.23
62038;BME280;47991;42.974;12.082;2022-07-06T08:07:42;97773.23;;;31.84;35.94
62038;BME280;47991;42.974;12.082;2022-07-06T08:10:09;97772.21;;;31.85;35.90
62038;BME280;47991;42.974;12.082;2022-07-06T08:12:41;97771.98;;;31.98;35.23
62038;BME280;47991;42.974;12.082;2022-07-06T08:15:09;97767.69;;;32.02;34.96
62038;BME280;47991;42.974;12.082;2022-07-06T08:17:36;97764.35;;;32.05;35.12
62038;BME280;47991;42.974;12.082;2022-07-06T08:20:04;97759.95;;;32.14;34.87
62038;BME280;47991;42.974;12.082;2022-07-06T08:22:52;97760.88;;;32.17;34.07
62038;BME280;47991;42.974;12.082;2022-07-06T08:25:20;97766.70;;;32.22;34.24
62038;BME280;47991;42.974;12.082;2022-07-06T08:27:47;97766.08;;;32.29;34.07
62038;BME280;47991;42.974;12.082;2022-07-06T08:30:17;97769.10;;;32.16;33.28
62038;BME280;47991;42.974;12.082;2022-07-06T08:32:43;97773.36;;;32.07;33.59
62038;BME280;47991;42.974;12.082;2022-07-06T08:35:10;97775.37;;;32.04;33.42
62038;BME280;47991;42.974;12.082;2022-07-06T08:37:37;97775.91;;;32.12;33.67
62038;BME280;47991;42.974;12.082;2022-07-06T08:40:23;97768.44;;;32.34;33.39
62038;BME280;47991;42.974;12.082;2022-07-06T08:42:57;97769.52;;;32.62;32.66
62038;BME280;47991;42.974;12.082;2022-07-06T08:45:29;97764.31;;;32.87;32.32
62038;BME280;47991;42.974;12.082;2022-07-06T08:48:17;97769.14;;;33.00;32.01
62038;BME280;47991;42.974;12.082;2022-07-06T08:50:52;97764.45;;;33.19;31.69
62038;BME280;47991;42.974;12.082;2022-07-06T08:53:20;97759.85;;;33.21;31.40
62038;BME280;47991;42.974;12.082;2022-07-06T08:56:08;97759.17;;;33.30;30.69
62038;BME280;47991;42.974;12.082;2022-07-06T08:58:35;97756.66;;;32.82;31.51
62038;BME280;47991;42.974;12.082;2022-07-06T09:01:24;97757.48;;;33.12;31.58
62038;BME280;47991;42.974;12.082;2022-07-06T09:04:00;97750.52;;;33.36;30.45
62038;BME280;47991;42.974;12.082;2022-07-06T09:06:47;97751.42;;;33.66;30.08
62038;BME280;47991;42.974;12.082;2022-07-06T09:09:20;97750.74;;;33.82;29.77
62038;BME280;47991;42.974;12.082;2022-07-06T09:11:48;97748.11;;;33.71;29.33
62038;BME280;47991;42.974;12.082;2022-07-06T09:14:16;97744.89;;;33.80;29.71
62038;BME280;47991;42.974;12.082;2022-07-06T09:16:51;97745.02;;;34.17;29.12
62038;BME280;47991;42.974;12.082;2022-07-06T09:19:22;97740.48;;;34.26;28.60
62038;BME280;47991;42.974;12.082;2022-07-06T09:21:49;97739.67;;;34.28;28.66
62038;BME280;47991;42.974;12.082;2022-07-06T09:24:16;97740.52;;;34.40;28.70
62038;BME280;47991;42.974;12.082;2022-07-06T09:26:49;97741.14;;;34.64;27.75
62038;BME280;47991;42.974;12.082;2022-07-06T09:29:16;97737.83;;;34.81;28.17
62038;BME280;47991;42.974;12.082;2022-07-06T09:32:02;97741.20;;;34.84;27.67
62038;BME280;47991;42.974;12.082;2022-07-06T09:35:01;97739.70;;;34.92;27.53
62038;BME280;47991;42.974;12.082;2022-07-06T09:37:30;97730.42;;;35.09;27.24
62038;BME280;47991;42.974;12.082;2022-07-06T09:39:57;97732.93;;;35.10;27.11
62038;BME280;47991;42.974;12.082;2022-07-06T09:42:25;97732.44;;;34.76;27.61
62038;BME280;47991;42.974;12.082;2022-07-06T09:44:53;97727.13;;;34.70;27.95
62038;BME280;47991;42.974;12.082;2022-07-06T09:47:20;97727.46;;;34.99;27.58
62038;BME280;47991;42.974;12.082;2022-07-06T09:49:47;97728.15;;;35.29;27.26
62038;BME280;47991;42.974;12.082;2022-07-06T09:52:15;97729.95;;;35.50;27.11
62038;BME280;47991;42.974;12.082;2022-07-06T09:54:42;97725.12;;;35.67;26.75
62038;BME280;47991;42.974;12.082;2022-07-06T09:57:09;97723.13;;;35.52;26.32
62038;BME280;47991;42.974;12.082;2022-07-06T09:59:36;97721.13;;;35.43;26.25
62038;BME280;47991;42.974;12.082;2022-07-06T10:02:06;97718.07;;;35.37;25.63
62038;BME280;47991;42.974;12.082;2022-07-06T10:04:34;97716.42;;;35.07;25.80
62038;BME280;47991;42.974;12.082;2022-07-06T10:07:01;97720.67;;;34.60;26.94
62038;BME280;47991;42.974;12.082;2022-07-06T10:09:30;97716.73;;;34.81;26.16
62038;BME280;47991;42.974;12.082;2022-07-06T10:12:05;97715.27;;;35.18;25.40
62038;BME280;47991;42.974;12.082;2022-07-06T10:14:56;97714.95;;;35.20;25.68
62038;BME280;47991;42.974;12.082;2022-07-06T10:17:24;97718.19;;;35.57;26.00
62038;BME280;47991;42.974;12.082;2022-07-06T10:19:53;97718.02;;;36.03;25.49
62038;BME280;47991;42.974;12.082;2022-07-06T10:22:26;97716.15;;;36.23;23.66
62038;BME280;47991;42.974;12.082;2022-07-06T10:25:16;97717.89;;;36.41;23.69
62038;BME280;47991;42.974;12.082;2022-07-06T10:27:45;97722.45;;;36.60;22.02
62038;BME280;47991;42.974;12.082;2022-07-06T10:30:14;97717.48;;;36.81;22.61
62038;BME280;47991;42.974;12.082;2022-07-06T10:32:46;97722.48;;;37.00;21.90
62038;BME280;47991;42.974;12.082;2022-07-06T10:35:31;97719.88;;;37.10;22.00
62038;BME280;47991;42.974;12.082;2022-07-06T10:38:09;97716.23;;;36.97;21.87
62038;BME280;47991;42.974;12.082;2022-07-06T10:41:04;97716.35;;;37.12;22.52
62038;BME280;47991;42.974;12.082;2022-07-06T10:43:46;97713.95;;;36.23;22.56
62038;BME280;47991;42.974;12.082;2022-07-06T10:46:34;97711.73;;;35.49;22.89
62038;BME280;47991;42.974;12.082;2022-07-06T10:49:21;97709.27;;;35.32;23.39
62038;BME280;47991;42.974;12.082;2022-07-06T10:51:53;97713.71;;;35.38;23.33
62038;BME280;47991;42.974;12.082;2022-07-06T10:54:48;97712.51;;;35.65;23.08
62038;BME280;47991;42.974;12.082;2022-07-06T10:57:15;97717.84;;;36.00;22.90
62038;BME280;47991;42.974;12.082;2022-07-06T11:00:03;97710.86;;;36.33;22.72
62038;BME280;47991;42.974;12.082;2022-07-06T11:02:38;97706.72;;;36.55;22.69
62038;BME280;47991;42.974;12.082;2022-07-06T11:08:02;97702.59;;;36.80;21.95
62038;BME280;47991;42.974;12.082;2022-07-06T11:10:46;97703.11;;;36.76;21.41
62038;BME280;47991;42.974;12.082;2022-07-06T11:13:29;97695.89;;;36.88;21.10
62038;BME280;47991;42.974;12.082;2022-07-06T11:16:03;97694.89;;;36.98;21.21
62038;BME280;47991;42.974;12.082;2022-07-06T11:21:43;97689.30;;;37.38;21.18
62038;BME280;47991;42.974;12.082;2022-07-06T11:24:20;97681.71;;;37.27;21.52
62038;BME280;47991;42.974;12.082;2022-07-06T11:27:01;97686.04;;;36.78;21.61
62038;BME280;47991;42.974;12.082;2022-07-06T11:29:30;97681.81;;;36.27;21.87
62038;BME280;47991;42.974;12.082;2022-07-06T11:32:03;97683.73;;;36.07;22.69
62038;BME280;47991;42.974;12.082;2022-07-06T11:34:48;97675.65;;;36.37;22.64
62038;BME280;47991;42.974;12.082;2022-07-06T11:37:35;97668.61;;;36.39;22.72
62038;BME280;47991;42.974;12.082;2022-07-06T11:40:13;97673.29;;;36.22;22.98
62038;BME280;47991;42.974;12.082;2022-07-06T11:42:40;97667.08;;;36.49;22.83
62038;BME280;47991;42.974;12.082;2022-07-06T11:45:28;97662.65;;;36.33;23.11
62038;BME280;47991;42.974;12.082;2022-07-06T11:48:15;97651.54;;;36.22;23.25
62038;BME280;47991;42.974;12.082;2022-07-06T11:50:43;97637.29;;;36.56;23.54
62038;BME280;47991;42.974;12.082;2022-07-06T11:53:10;97631.13;;;37.05;22.55
62038;BME280;47991;42.974;12.082;2022-07-06T11:55:38;97630.38;;;37.04;22.16
62038;BME280;47991;42.974;12.082;2022-07-06T11:58:05;97625.20;;;37.42;22.08
62038;BME280;47991;42.974;12.082;2022-07-06T12:00:32;97622.48;;;37.69;21.56
62038;BME280;47991;42.974;12.082;2022-07-06T12:03:03;97614.34;;;37.87;21.34
62038;BME280;47991;42.974;12.082;2022-07-06T12:05:33;97615.20;;;37.82;21.68
62038;BME280;47991;42.974;12.082;2022-07-06T12:08:07;97619.69;;;37.21;21.70
62038;BME280;47991;42.974;12.082;2022-07-06T12:10:40;97616.17;;;36.77;22.26
62038;BME280;47991;42.974;12.082;2022-07-06T12:13:08;97614.88;;;36.90;22.24
62038;BME280;47991;42.974;12.082;2022-07-06T12:15:35;97616.06;;;37.28;21.80
62038;BME280;47991;42.974;12.082;2022-07-06T12:18:03;97615.77;;;37.09;21.57
62038;BME280;47991;42.974;12.082;2022-07-06T12:20:30;97614.63;;;37.04;21.81
62038;BME280;47991;42.974;12.082;2022-07-06T12:23:20;97613.19;;;37.29;21.66
62038;BME280;47991;42.974;12.082;2022-07-06T12:26:09;97605.27;;;37.59;21.34
62038;BME280;47991;42.974;12.082;2022-07-06T12:28:36;97606.73;;;37.45;20.97
62038;BME280;47991;42.974;12.082;2022-07-06T12:31:04;97606.97;;;37.48;21.26
62038;BME280;47991;42.974;12.082;2022-07-06T12:33:32;97602.91;;;37.49;21.50
62038;BME280;47991;42.974;12.082;2022-07-06T12:36:13;97604.88;;;37.57;21.47
62038;BME280;47991;42.974;12.082;2022-07-06T12:38:56;97599.48;;;37.58;21.17
62038;BME280;47991;42.974;12.082;2022-07-06T12:41:26;97604.34;;;37.44;21.26
62038;BME280;47991;42.974;12.082;2022-07-06T12:44:25;97601.05;;;37.29;21.05
62038;BME280;47991;42.974;12.082;2022-07-06T12:47:22;97594.20;;;36.93;21.34
62038;BME280;47991;42.974;12.082;2022-07-06T12:50:33;97585.85;;;36.98;21.68
62038;BME280;47991;42.974;12.082;2022-07-06T12:53:26;97583.19;;;36.93;21.66
62038;BME280;47991;42.974;12.082;2022-07-06T12:56:12;97581.80;;;36.39;22.31
62038;BME280;47991;42.974;12.082;2022-07-06T12:58:39;97586.27;;;36.24;22.47
62038;BME280;47991;42.974;12.082;2022-07-06T13:01:06;97582.98;;;36.00;22.62
62038;BME280;47991;42.974;12.082;2022-07-06T13:03:40;97587.23;;;36.02;22.68
62038;BME280;47991;42.974;12.082;2022-07-06T13:06:07;97584.72;;;36.56;22.07
62038;BME280;47991;42.974;12.082;2022-07-06T13:08:34;97580.56;;;36.53;22.13
62038;BME280;47991;42.974;12.082;2022-07-06T13:11:00;97572.52;;;36.33;22.33
62038;BME280;47991;42.974;12.082;2022-07-06T13:13:27;97561.07;;;36.28;22.48
62038;BME280;47991;42.974;12.082;2022-07-06T13:15:54;97559.21;;;36.56;23.04
62038;BME280;47991;42.974;12.082;2022-07-06T13:18:21;97563.16;;;36.95;22.10
62038;BME280;47991;42.974;12.082;2022-07-06T13:20:48;97563.98;;;37.18;21.42
62038;BME280;47991;42.974;12.082;2022-07-06T13:23:15;97568.05;;;37.35;21.83